Time;durP1;ratioP1;P1;durP2;ratioP2;P2;SDS_P1;SDS_P2;PMS_P1;PMS_P2;Temp;Humidity;BMP_temperature;BMP_pressure;BME280_temperature;BME280_humidity;BME280_pressure;Samples;Min_cycle;Max_cycle;Signal;HPM_P1;HPM_P2
2021/08/19 00:01:08;;;;;;;2.98;1.90;;;;;;;15.89;65.29;96422.73;1799903;78;20956;-81
2021/08/19 00:03:34;;;;;;;3.60;1.90;;;;;;;15.90;65.26;96420.91;1810398;78;20989;-81
2021/08/19 00:06:00;;;;;;;4.05;1.85;;;;;;;15.89;65.37;96426.66;1798575;78;21414;-81
2021/08/19 00:08:26;;;;;;;2.17;1.57;;;;;;;15.88;65.53;96427.67;1805248;78;20961;-81
2021/08/19 00:10:52;;;;;;;2.35;1.57;;;;;;;15.86;65.49;96422.36;1797128;78;20975;-81
2021/08/19 00:13:17;;;;;;;2.42;1.60;;;;;;;15.85;65.94;96424.18;1798224;78;20967;-81
2021/08/19 00:15:43;;;;;;;2.42;1.82;;;;;;;15.83;65.69;96425.41;1799703;78;20945;-81
2021/08/19 00:18:09;;;;;;;2.90;1.77;;;;;;;15.84;66.39;96424.39;1799902;78;21384;-81
2021/08/19 00:20:34;;;;;;;2.20;1.70;;;;;;;15.83;66.08;96428.03;1790463;78;20987;-81
2021/08/19 00:23:01;;;;;;;2.00;1.65;;;;;;;15.83;65.89;96428.03;1797580;78;20995;-80
2021/08/19 00:25:29;;;;;;;2.25;1.52;;;;;;;15.86;66.01;96420.55;1798354;78;21335;-81
2021/08/19 00:27:55;;;;;;;2.20;1.57;;;;;;;15.88;66.06;96425.56;1804418;77;20969;-81
2021/08/19 00:30:20;;;;;;;4.05;1.90;;;;;;;15.87;65.90;96420.03;1797585;78;21002;-80
2021/08/19 00:32:46;;;;;;;2.42;1.80;;;;;;;15.87;66.42;96422.14;1798905;77;20940;-80
2021/08/19 00:35:12;;;;;;;2.42;1.85;;;;;;;15.86;66.13;96426.30;1803318;77;20924;-81
2021/08/19 00:37:37;;;;;;;3.15;1.70;;;;;;;15.85;66.11;96429.93;1797849;78;20961;-81
2021/08/19 00:40:04;;;;;;;3.12;2.10;;;;;;;15.81;66.00;96423.52;1796061;78;20925;-80
2021/08/19 00:42:32;;;;;;;1.87;1.47;;;;;;;15.82;66.37;96427.73;1785051;77;20985;-81
2021/08/19 00:44:58;;;;;;;2.98;1.45;;;;;;;15.81;66.29;96421.70;1805446;78;21426;-81
2021/08/19 00:47:26;;;;;;;2.85;1.40;;;;;;;15.85;66.57;96423.38;1799374;78;20997;-81
2021/08/19 00:49:52;;;;;;;2.95;1.70;;;;;;;15.84;66.49;96426.50;1806908;78;21082;-81
2021/08/19 00:52:19;;;;;;;2.67;1.57;;;;;;;15.84;66.52;96423.88;1796025;78;21035;-81
2021/08/19 00:54:44;;;;;;;3.00;1.82;;;;;;;15.85;66.61;96420.25;1761153;80;22009;-81
2021/08/19 00:57:10;;;;;;;3.05;1.80;;;;;;;15.85;66.47;96423.38;1753850;80;20962;-81
2021/08/19 00:59:37;;;;;;;3.22;1.87;;;;;;;15.84;67.14;96420.47;1763007;80;20951;-81
2021/08/19 01:02:05;;;;;;;2.12;1.62;;;;;;;15.84;66.97;96420.47;1765193;79;20998;-81
2021/08/19 01:04:32;;;;;;;2.27;1.55;;;;;;;15.84;66.70;96420.47;1768062;80;21412;-81
2021/08/19 01:07:02;;;;;;;2.27;1.60;;;;;;;15.87;66.82;96416.10;1764416;80;21037;-82
2021/08/19 01:09:28;;;;;;;2.17;1.75;;;;;;;15.88;66.80;96411.16;1766054;80;20964;-81
2021/08/19 01:11:54;;;;;;;2.17;1.42;;;;;;;15.87;67.19;96412.17;1736173;79;20959;-81
2021/08/19 01:14:20;;;;;;;1.98;1.65;;;;;;;15.85;67.59;96404.53;1760504;80;20902;-81
2021/08/19 01:16:46;;;;;;;1.90;1.57;;;;;;;15.81;67.14;96409.91;1764508;79;20971;-82
2021/08/19 01:19:20;;;;;;;4.35;1.80;;;;;;;15.81;67.19;96418.28;1759336;80;20997;-81
2021/08/19 01:21:53;;;;;;;3.58;3.02;;;;;;;15.76;67.17;96408.41;1766334;79;21047;-81
2021/08/19 01:24:20;;;;;;;3.58;3.08;;;;;;;15.76;67.13;96415.47;1761237;80;20965;-81
2021/08/19 01:26:47;;;;;;;7.08;5.08;;;;;;;15.78;67.41;96416.89;1740217;81;20925;-80
2021/08/19 01:29:13;;;;;;;3.12;2.47;;;;;;;15.80;67.19;96420.09;1796768;78;20972;-80
2021/08/19 01:31:39;;;;;;;3.27;2.83;;;;;;;15.82;67.36;96422.50;1789320;77;20979;-81
2021/08/19 01:34:05;;;;;;;2.67;1.70;;;;;;;15.81;67.42;96419.59;1799798;78;21284;-81
2021/08/19 01:36:31;;;;;;;2.50;1.40;;;;;;;15.82;68.19;96422.50;1800165;78;20973;-81
2021/08/19 01:38:57;;;;;;;1.67;1.20;;;;;;;15.77;67.92;96420.50;1796293;78;21452;-81
2021/08/19 01:41:22;;;;;;;2.45;1.55;;;;;;;15.74;68.05;96422.23;1792433;77;20964;-81
2021/08/19 01:43:51;;;;;;;2.83;1.95;;;;;;;15.70;68.44;96425.50;1789229;78;20928;-81
2021/08/19 01:46:19;;;;;;;2.47;1.62;;;;;;;15.68;68.35;96420.98;1768271;78;20930;-81
2021/08/19 01:48:46;;;;;;;2.83;1.60;;;;;;;15.62;68.18;96421.34;1808775;78;21003;-81
2021/08/19 01:51:21;;;;;;;1.47;1.10;;;;;;;15.56;68.05;96427.37;1799752;78;20995;-81
2021/08/19 01:53:49;;;;;;;3.20;1.40;;;;;;;15.54;68.46;96430.72;1800896;78;20999;-81
2021/08/19 01:56:23;;;;;;;2.50;1.75;;;;;;;15.49;68.44;96422.19;1789904;78;21024;-81
2021/08/19 01:58:50;;;;;;;2.30;2.10;;;;;;;15.40;68.34;96422.13;1805952;78;20979;-81
2021/08/19 02:01:19;;;;;;;1.90;1.60;;;;;;;15.42;68.37;96420.10;1800387;78;21399;-81
2021/08/19 02:03:45;;;;;;;2.45;1.52;;;;;;;15.41;68.69;96415.88;1796553;78;20990;-81
2021/08/19 02:06:11;;;;;;;3.47;1.70;;;;;;;15.40;69.22;96422.13;1783938;78;20956;-81
2021/08/19 02:08:37;;;;;;;1.95;1.47;;;;;;;15.39;69.26;96420.53;1749187;80;20932;-81
2021/08/19 02:11:02;;;;;;;1.98;1.70;;;;;;;15.39;68.73;96421.04;1758832;80;20995;-81
2021/08/19 02:13:28;;;;;;;2.33;1.72;;;;;;;15.40;68.76;96423.44;1755081;80;20988;-82
2021/08/19 02:15:54;;;;;;;2.10;1.32;;;;;;;15.42;68.89;96420.61;1755807;80;20971;-81
2021/08/19 02:18:19;;;;;;;2.65;1.37;;;;;;;15.41;68.74;96415.88;1759642;80;20960;-81
2021/08/19 02:20:45;;;;;;;2.65;1.30;;;;;;;15.43;69.39;96419.09;1750787;79;20952;-82
2021/08/19 02:23:11;;;;;;;3.62;1.47;;;;;;;15.43;69.21;96416.98;1756380;80;21058;-81
2021/08/19 02:25:36;;;;;;;2.95;1.40;;;;;;;15.44;69.07;96416.77;1756069;79;21309;-81
2021/08/19 02:28:02;;;;;;;1.98;1.60;;;;;;;15.47;69.04;96411.64;1762209;80;20948;-81
2021/08/19 02:30:28;;;;;;;2.72;1.70;;;;;;;15.47;68.84;96412.44;1752722;80;21048;-81
2021/08/19 02:32:57;;;;;;;3.87;1.40;;;;;;;15.50;68.86;96403.36;1751386;80;21078;-81
2021/08/19 02:35:26;;;;;;;1.82;1.35;;;;;;;15.53;69.04;96402.41;1759132;80;21027;-81
2021/08/19 02:37:54;;;;;;;1.80;1.17;;;;;;;15.54;68.74;96403.22;1747369;80;21015;-81
2021/08/19 02:40:21;;;;;;;1.50;1.20;;;;;;;15.56;68.67;96405.11;1756366;80;20994;-81
2021/08/19 02:42:47;;;;;;;1.20;0.93;;;;;;;15.58;68.53;96402.58;1744271;80;20968;-81
2021/08/19 02:45:12;;;;;;;2.12;1.67;;;;;;;15.64;68.53;96409.34;1755055;80;21426;-81
2021/08/19 02:47:38;;;;;;;1.90;1.45;;;;;;;15.66;68.43;96409.92;1751057;80;21319;-81
2021/08/19 02:50:05;;;;;;;1.87;1.30;;;;;;;15.67;68.27;96413.64;1755417;80;20998;-81
2021/08/19 02:52:30;;;;;;;2.40;1.98;;;;;;;15.67;68.35;96415.45;1756242;80;20945;-81
2021/08/19 02:54:56;;;;;;;2.72;1.32;;;;;;;15.67;68.42;96402.36;1754564;80;21422;-81
2021/08/19 02:57:22;;;;;;;2.50;1.42;;;;;;;15.66;68.35;96409.41;1748459;80;20959;-81
2021/08/19 02:59:47;;;;;;;2.25;1.47;;;;;;;15.67;68.26;96410.22;1759033;80;20960;-81
2021/08/19 03:02:13;;;;;;;1.57;1.12;;;;;;;15.68;68.21;96411.82;1734336;80;21009;-81
2021/08/19 03:04:40;;;;;;;2.25;1.32;;;;;;;15.69;67.98;96414.73;1756813;80;21095;-81
2021/08/19 03:07:09;;;;;;;2.37;0.90;;;;;;;15.70;68.12;96411.90;1784878;78;20968;-81
2021/08/19 03:09:33;;;;;;;1.47;1.10;;;;;;;15.67;68.27;96413.64;1795169;78;21000;-81
2021/08/19 03:11:59;;;;;;;2.80;1.27;;;;;;;15.64;68.80;96408.03;1796450;78;20969;-81
2021/08/19 03:14:25;;;;;;;2.17;1.12;;;;;;;15.60;69.42;96406.31;1790081;78;21443;-81
2021/08/19 03:16:50;;;;;;;2.42;1.50;;;;;;;15.52;68.86;96406.05;1795955;78;21047;-81
2021/08/19 03:19:16;;;;;;;1.72;1.12;;;;;;;15.51;68.74;96408.38;1765699;80;21037;-81
2021/08/19 03:21:43;;;;;;;3.12;1.30;;;;;;;15.52;68.86;96402.13;1752876;80;21708;-81
2021/08/19 03:24:09;;;;;;;1.22;0.93;;;;;;;15.52;68.75;96409.17;1754172;80;21021;-81
2021/08/19 03:26:35;;;;;;;2.92;1.42;;;;;;;15.49;69.32;96403.86;1768896;80;21479;-81
2021/08/19 03:29:01;;;;;;;3.00;1.50;;;;;;;15.45;68.77;96406.59;1732152;81;20981;-80
2021/08/19 03:31:27;;;;;;;3.02;1.40;;;;;;;15.44;68.88;96411.53;1736331;81;21084;-81
2021/08/19 03:33:52;;;;;;;1.62;1.22;;;;;;;15.43;68.81;96411.74;1735796;80;21104;-81
2021/08/19 03:36:18;;;;;;;1.47;1.30;;;;;;;15.42;68.87;96403.09;1740789;81;21411;-81
2021/08/19 03:38:44;;;;;;;1.55;1.05;;;;;;;15.45;68.81;96401.34;1737568;81;20936;-81
2021/08/19 03:41:11;;;;;;;1.90;1.25;;;;;;;15.48;69.10;96396.22;1733698;81;21001;-81
2021/08/19 03:43:37;;;;;;;3.08;1.20;;;;;;;15.48;68.84;96398.33;1733822;81;20973;-81
2021/08/19 03:46:03;;;;;;;2.12;1.50;;;;;;;15.47;68.77;96399.34;1732945;81;21395;-81
2021/08/19 03:48:29;;;;;;;1.60;1.30;;;;;;;15.48;68.77;96400.15;1735645;81;20982;-81
2021/08/19 03:50:55;;;;;;;1.60;1.30;;;;;;;15.46;68.79;96393.81;1731734;81;20964;-81
2021/08/19 03:53:20;;;;;;;3.65;1.60;;;;;;;15.45;68.82;96397.42;1737954;81;20972;-81
2021/08/19 03:55:46;;;;;;;2.87;1.32;;;;;;;15.43;68.90;96402.07;1784504;78;21083;-81
2021/08/19 03:58:12;;;;;;;1.70;1.17;;;;;;;15.39;68.84;96394.86;1798312;78;21245;-81
2021/08/19 04:00:38;;;;;;;1.67;1.35;;;;;;;15.43;68.73;96399.45;1793971;78;20957;-81
2021/08/19 04:03:03;;;;;;;1.80;1.22;;;;;;;15.42;68.77;96399.67;1769679;78;21037;-80
2021/08/19 04:05:29;;;;;;;1.82;1.37;;;;;;;15.41;69.40;96405.91;1800246;78;20963;-81
2021/08/19 04:07:55;;;;;;;1.52;1.37;;;;;;;15.40;69.71;96405.63;1798141;78;20974;-81
2021/08/19 04:10:21;;;;;;;1.72;1.02;;;;;;;15.37;69.44;96408.67;1793633;78;21055;-81
2021/08/19 04:12:47;;;;;;;2.30;1.10;;;;;;;15.37;69.97;96408.16;1797094;78;20968;-81
2021/08/19 04:15:13;;;;;;;2.27;1.17;;;;;;;15.39;69.48;96401.41;1805478;78;20920;-82
2021/08/19 04:17:39;;;;;;;1.77;1.22;;;;;;;15.43;70.01;96413.85;1796621;78;20959;-81
2021/08/19 04:20:06;;;;;;;1.50;1.20;;;;;;;15.45;69.33;96405.27;1799591;78;21343;-81
2021/08/19 04:22:32;;;;;;;2.20;1.20;;;;;;;15.49;69.38;96404.37;1792513;78;21046;-81
2021/08/19 04:24:58;;;;;;;2.55;1.20;;;;;;;15.50;69.52;96405.47;1799839;78;20995;-81
2021/08/19 04:27:23;;;;;;;2.05;1.47;;;;;;;15.52;70.29;96411.29;1765969;78;21307;-81
2021/08/19 04:29:49;;;;;;;2.80;1.37;;;;;;;15.52;69.37;96411.80;1796506;78;20917;-81
2021/08/19 04:32:16;;;;;;;1.35;1.10;;;;;;;15.54;69.28;96417.11;1798202;78;20909;-81
2021/08/19 04:34:42;;;;;;;1.60;1.40;;;;;;;15.59;69.32;96408.64;1800717;78;21317;-81
2021/08/19 04:37:07;;;;;;;4.03;1.20;;;;;;;15.66;69.10;96412.55;1795993;78;20993;-81
2021/08/19 04:39:33;;;;;;;1.90;1.35;;;;;;;15.71;69.51;96410.88;1799010;78;20973;-81
2021/08/19 04:41:59;;;;;;;2.00;1.72;;;;;;;15.73;68.88;96411.47;1794763;77;20967;-81
2021/08/19 04:44:25;;;;;;;1.77;1.47;;;;;;;15.76;68.66;96408.41;1799416;78;21457;-81
2021/08/19 04:46:50;;;;;;;2.00;1.07;;;;;;;15.80;68.88;96409.62;1763677;80;20916;-81
2021/08/19 04:49:16;;;;;;;1.80;1.30;;;;;;;15.82;68.43;96402.34;1750852;80;20986;-81
2021/08/19 04:51:42;;;;;;;1.47;1.20;;;;;;;15.86;68.49;96404.02;1747571;81;21039;-81
2021/08/19 04:54:08;;;;;;;3.85;1.20;;;;;;;15.91;68.55;96402.35;1731725;81;21000;-81
2021/08/19 04:56:37;;;;;;;1.98;1.52;;;;;;;15.98;68.35;96403.63;1738516;81;21051;-81
2021/08/19 04:59:06;;;;;;;1.60;1.40;;;;;;;16.02;68.41;96400.86;1719717;81;21343;-81
2021/08/19 05:01:32;;;;;;;1.90;1.70;;;;;;;16.07;68.49;96405.45;1789291;78;21000;-81
2021/08/19 05:04:02;;;;;;;2.00;1.27;;;;;;;16.09;68.18;96406.83;1794133;78;21455;-81
2021/08/19 05:06:28;;;;;;;1.90;1.27;;;;;;;16.13;68.17;96400.16;1757934;80;20957;-81
2021/08/19 05:08:55;;;;;;;2.33;1.50;;;;;;;16.14;67.74;96408.31;1756770;80;20944;-81
2021/08/19 05:11:22;;;;;;;2.00;1.10;;;;;;;16.16;67.95;96404.97;1721649;82;21043;-81
2021/08/19 05:13:48;;;;;;;1.50;1.30;;;;;;;16.20;67.30;96402.20;1800575;78;20993;-81
2021/08/19 05:16:13;;;;;;;2.00;1.37;;;;;;;16.26;67.45;96400.52;1794363;78;20976;-81
2021/08/19 05:18:40;;;;;;;1.40;1.02;;;;;;;16.31;67.58;96403.83;1796164;78;22237;-81
2021/08/19 05:21:10;;;;;;;2.22;1.42;;;;;;;16.34;67.36;96401.57;1783369;78;21033;-81
2021/08/19 05:23:36;;;;;;;1.57;0.95;;;;;;;16.36;67.03;96397.41;1777130;79;20932;-81
2021/08/19 05:26:02;;;;;;;2.22;1.57;;;;;;;16.37;66.87;96399.81;1789753;79;21022;-81
2021/08/19 05:28:28;;;;;;;1.67;1.30;;;;;;;16.40;66.78;96399.38;1785551;78;21323;-81
2021/08/19 05:30:53;;;;;;;2.42;1.55;;;;;;;16.44;66.76;96405.02;1766521;78;20999;-81
2021/08/19 05:33:19;;;;;;;1.57;1.40;;;;;;;16.46;66.67;96406.91;1764119;79;20962;-81
2021/08/19 05:35:45;;;;;;;2.70;1.27;;;;;;;16.51;66.94;96400.48;1799915;78;21391;-81
2021/08/19 05:38:10;;;;;;;1.75;1.10;;;;;;;16.55;67.54;96400.84;1789777;78;21040;-81
2021/08/19 05:40:36;;;;;;;1.70;1.42;;;;;;;16.59;66.76;96406.73;1782706;78;20967;-81
2021/08/19 05:43:02;;;;;;;1.90;1.50;;;;;;;16.66;66.64;96406.17;1797579;79;21454;-81
2021/08/19 05:45:28;;;;;;;1.70;1.60;;;;;;;16.70;66.39;96406.56;1786835;78;20992;-82
2021/08/19 05:47:54;;;;;;;2.45;1.27;;;;;;;16.76;66.56;96407.81;1784504;78;20928;-81
2021/08/19 05:50:20;;;;;;;1.47;1.20;;;;;;;16.79;66.35;96403.95;1791718;78;21288;-81
2021/08/19 05:52:46;;;;;;;3.77;1.40;;;;;;;16.83;66.25;96414.80;1799311;79;21000;-80
2021/08/19 05:55:12;;;;;;;2.30;1.22;;;;;;;16.83;66.16;96411.66;1795601;78;21073;-81
2021/08/19 05:57:38;;;;;;;1.87;1.62;;;;;;;16.87;66.11;96412.81;1798843;78;21486;-81
2021/08/19 06:00:04;;;;;;;1.90;1.57;;;;;;;16.90;65.74;96411.57;1794423;78;20941;-81
2021/08/19 06:02:30;;;;;;;1.87;1.57;;;;;;;16.92;66.00;96406.90;1774207;78;21245;-81
2021/08/19 06:04:56;;;;;;;1.17;1.05;;;;;;;16.96;66.88;96412.02;1794182;78;21009;-81
2021/08/19 06:07:22;;;;;;;1.65;1.25;;;;;;;17.02;65.83;96413.75;1797577;78;21373;-81
2021/08/19 06:09:47;;;;;;;1.95;1.40;;;;;;;17.04;65.54;96413.02;1797841;77;20948;-81
2021/08/19 06:12:13;;;;;;;1.77;1.42;;;;;;;17.08;65.13;96412.38;1806999;78;20996;-81
2021/08/19 06:14:39;;;;;;;3.15;1.67;;;;;;;17.13;65.62;96411.70;1812896;77;20920;-81
2021/08/19 06:17:05;;;;;;;2.50;1.60;;;;;;;17.18;65.52;96414.96;1803457;78;20949;-81
2021/08/19 06:19:31;;;;;;;2.12;1.50;;;;;;;17.23;65.73;96413.27;1808104;78;20928;-80
2021/08/19 06:21:56;;;;;;;3.98;1.92;;;;;;;17.30;65.55;96413.19;1801218;77;20983;-81
2021/08/19 06:24:22;;;;;;;3.00;1.40;;;;;;;17.31;65.46;96418.22;1804068;78;21014;-81
2021/08/19 06:26:48;;;;;;;1.90;1.45;;;;;;;17.35;65.26;96419.37;1809785;78;21097;-81
2021/08/19 06:29:13;;;;;;;1.62;1.20;;;;;;;17.36;64.99;96409.15;1800084;78;21059;-81
2021/08/19 06:31:39;;;;;;;1.60;1.10;;;;;;;17.40;65.52;96403.73;1797569;78;20989;-81
2021/08/19 06:34:05;;;;;;;1.90;1.20;;;;;;;17.43;64.59;96409.08;1805257;78;20953;-82
2021/08/19 06:36:31;;;;;;;1.72;1.22;;;;;;;17.48;64.81;96401.83;1808740;78;20934;-81
2021/08/19 06:38:56;;;;;;;2.60;1.60;;;;;;;17.57;64.43;96401.30;1782183;79;20938;-81
2021/08/19 06:41:23;;;;;;;1.95;1.30;;;;;;;17.61;63.86;96399.81;1804104;78;21402;-81
2021/08/19 06:43:49;;;;;;;1.80;1.40;;;;;;;17.62;64.14;96401.41;1800018;78;20994;-81
2021/08/19 06:46:15;;;;;;;2.00;1.25;;;;;;;17.69;64.41;96403.95;1809053;78;21400;-81
2021/08/19 06:48:41;;;;;;;1.82;1.35;;;;;;;17.76;64.18;96403.87;1800125;77;20981;-81
2021/08/19 06:51:06;;;;;;;1.85;1.47;;;;;;;17.79;64.12;96398.95;1808613;77;21333;-81
2021/08/19 06:53:32;;;;;;;1.52;1.30;;;;;;;17.87;64.13;96403.87;1801484;78;20953;-81
2021/08/19 06:55:58;;;;;;;1.85;1.17;;;;;;;17.99;64.36;96402.58;1800482;78;21047;-81
2021/08/19 06:58:24;;;;;;;1.72;1.50;;;;;;;18.12;64.42;96401.05;1804092;78;20898;-82
2021/08/19 07:00:50;;;;;;;2.12;1.42;;;;;;;18.20;65.43;96408.58;1795958;78;21007;-81
2021/08/19 07:03:16;;;;;;;1.98;1.42;;;;;;;18.29;63.45;96408.53;1793812;77;21372;-82
2021/08/19 07:05:44;;;;;;;1.62;1.20;;;;;;;18.32;62.88;96410.41;1800096;78;21013;-81
2021/08/19 07:08:10;;;;;;;1.60;1.10;;;;;;;18.31;62.55;96408.30;1770266;78;21067;-81
2021/08/19 07:10:38;;;;;;;1.82;1.30;;;;;;;18.38;63.11;96408.97;1745679;80;21035;-81
2021/08/19 07:13:04;;;;;;;1.70;1.40;;;;;;;18.45;62.87;96404.92;1743063;80;21449;-81
2021/08/19 07:15:30;;;;;;;2.22;1.40;;;;;;;18.50;62.86;96410.28;1746274;80;20983;-81
2021/08/19 07:17:56;;;;;;;1.60;1.35;;;;;;;18.50;62.50;96409.77;1742412;80;20915;-81
2021/08/19 07:20:22;;;;;;;1.87;1.62;;;;;;;18.56;62.80;96410.17;1741821;81;20960;-81
2021/08/19 07:22:47;;;;;;;1.95;1.20;;;;;;;18.60;63.29;96405.25;1741975;79;21018;-81
2021/08/19 07:25:14;;;;;;;2.17;1.27;;;;;;;18.68;63.08;96408.05;1743774;80;20924;-81
2021/08/19 07:27:40;;;;;;;1.95;1.55;;;;;;;18.76;62.79;96409.83;1742374;80;20983;-81
2021/08/19 07:30:07;;;;;;;3.05;1.55;;;;;;;18.82;63.04;96412.03;1749697;79;21003;-82
2021/08/19 07:32:33;;;;;;;3.62;1.70;;;;;;;18.84;62.14;96413.91;1714349;81;21047;-82
2021/08/19 07:34:58;;;;;;;1.62;1.32;;;;;;;18.82;62.01;96407.56;1743483;80;21034;-81
2021/08/19 07:37:24;;;;;;;3.00;1.47;;;;;;;18.75;62.13;96409.55;1725961;80;20958;-81
2021/08/19 07:39:50;;;;;;;2.92;1.57;;;;;;;18.77;62.70;96410.63;1728054;80;20955;-81
2021/08/19 07:42:15;;;;;;;2.58;1.75;;;;;;;18.82;62.52;96412.03;1729627;80;21294;-82
2021/08/19 07:44:41;;;;;;;2.08;1.52;;;;;;;18.87;63.05;96408.17;1721543;80;20970;-81
2021/08/19 07:47:07;;;;;;;1.75;1.60;;;;;;;18.91;61.57;96409.85;1724824;80;20912;-82
2021/08/19 07:49:33;;;;;;;2.65;1.57;;;;;;;18.85;62.14;96415.52;1743403;80;21031;-81
2021/08/19 07:51:58;;;;;;;2.22;1.42;;;;;;;18.84;61.83;96417.86;1741547;80;20919;-81
2021/08/19 07:54:24;;;;;;;2.05;1.65;;;;;;;18.92;62.51;96420.15;1742687;80;21326;-81
2021/08/19 07:56:50;;;;;;;2.72;1.60;;;;;;;19.01;63.41;96416.61;1749917;80;21007;-82
2021/08/19 07:59:16;;;;;;;1.80;1.30;;;;;;;18.99;61.66;96412.91;1742138;80;21294;-81
2021/08/19 08:01:42;;;;;;;3.10;1.52;;;;;;;18.98;62.23;96414.45;1741940;80;21015;-81
2021/08/19 08:04:08;;;;;;;2.10;1.52;;;;;;;19.00;62.48;96416.33;1727470;80;20932;-82
2021/08/19 08:06:35;;;;;;;3.85;1.87;;;;;;;19.09;63.46;96413.11;1732846;80;21038;-82
2021/08/19 08:09:03;;;;;;;3.37;1.52;;;;;;;19.22;63.05;96415.99;1766764;78;21366;-81
2021/08/19 08:11:29;;;;;;;2.35;1.85;;;;;;;19.31;62.79;96407.17;1791029;78;21030;-81
2021/08/19 08:13:54;;;;;;;2.00;1.57;;;;;;;19.37;62.76;96407.56;1793325;78;20934;-81
2021/08/19 08:16:21;;;;;;;4.65;2.15;;;;;;;19.45;63.67;96409.29;1788170;78;20891;-81
2021/08/19 08:18:47;;;;;;;2.33;1.80;;;;;;;19.53;62.08;96402.85;1796385;78;21026;-81
2021/08/19 08:21:14;;;;;;;3.10;1.35;;;;;;;19.69;62.59;96402.63;1786475;78;20977;-82
2021/08/19 08:23:41;;;;;;;2.33;1.27;;;;;;;19.74;61.35;96398.74;1790454;78;21299;-82
2021/08/19 08:26:07;;;;;;;1.75;1.30;;;;;;;19.73;61.20;96404.53;1789788;78;20973;-81
2021/08/19 08:28:32;;;;;;;2.47;1.67;;;;;;;19.84;61.58;96401.52;1786611;78;21442;-82
2021/08/19 08:30:59;;;;;;;2.52;1.37;;;;;;;19.98;61.63;96405.97;1800413;78;20997;-82
2021/08/19 08:33:25;;;;;;;1.67;1.35;;;;;;;20.12;61.49;96401.16;1790455;78;20985;-81
2021/08/19 08:35:51;;;;;;;2.87;1.32;;;;;;;20.24;60.79;96413.23;1800658;79;21012;-81
2021/08/19 08:38:19;;;;;;;2.47;1.25;;;;;;;20.27;60.36;96414.06;1784996;78;21002;-82
2021/08/19 08:40:47;;;;;;;2.25;1.90;;;;;;;20.25;60.29;96406.91;1782590;78;20957;-81
2021/08/19 08:43:16;;;;;;;2.83;1.40;;;;;;;20.28;59.51;96409.59;1800769;78;21387;-82
2021/08/19 08:45:42;;;;;;;1.82;1.22;;;;;;;20.27;60.02;96415.91;1797460;78;21307;-81
2021/08/19 08:48:15;;;;;;;1.42;1.20;;;;;;;20.30;59.08;96415.41;1752677;80;20928;-81
2021/08/19 08:50:43;;;;;;;1.40;1.00;;;;;;;20.36;59.58;96415.27;1748161;80;21386;-82
2021/08/19 08:53:09;;;;;;;1.95;1.30;;;;;;;20.51;59.31;96415.23;1753718;80;21317;-81
2021/08/19 08:55:37;;;;;;;2.33;1.12;;;;;;;20.59;57.93;96409.52;1750888;80;21106;-82
2021/08/19 08:58:03;;;;;;;1.47;1.22;;;;;;;20.57;58.15;96413.72;1755409;80;21032;-82
2021/08/19 09:00:29;;;;;;;3.80;1.45;;;;;;;20.55;57.97;96416.34;1747030;80;20982;-82
2021/08/19 09:02:55;;;;;;;1.50;1.20;;;;;;;20.62;57.45;96418.27;1763313;80;21375;-82
2021/08/19 09:05:25;;;;;;;1.70;1.10;;;;;;;20.66;57.50;96425.47;1756681;80;20938;-82
2021/08/19 09:07:55;;;;;;;1.30;1.10;;;;;;;20.66;57.42;96416.23;1751658;80;21059;-82
2021/08/19 09:10:23;;;;;;;1.77;1.02;;;;;;;20.71;57.46;96422.09;1758106;81;20994;-82
2021/08/19 09:12:49;;;;;;;2.10;1.15;;;;;;;20.85;56.19;96426.50;1756860;80;20950;-82
2021/08/19 09:15:18;;;;;;;1.60;1.15;;;;;;;20.84;55.56;96420.42;1743469;80;21330;-82
2021/08/19 09:17:53;;;;;;;1.32;1.00;;;;;;;20.80;55.47;96417.97;1752405;80;20979;-82
2021/08/19 09:20:36;;;;;;;2.33;1.10;;;;;;;20.83;56.04;96409.58;1750471;81;21031;-82
2021/08/19 09:23:11;;;;;;;1.60;1.20;;;;;;;20.89;56.39;96423.11;1765750;79;20977;-82
2021/08/19 09:25:45;;;;;;;2.00;1.10;;;;;;;20.89;56.45;96415.19;1769053;79;20963;-82
2021/08/19 09:28:27;;;;;;;1.17;0.98;;;;;;;20.92;56.11;96413.38;1760623;79;21345;-82
2021/08/19 09:31:06;;;;;;;1.62;1.20;;;;;;;21.04;55.58;96418.53;1764248;79;21321;-82
2021/08/19 09:33:40;;;;;;;2.27;1.20;;;;;;;21.03;54.13;96414.82;1757929;79;20962;-82
2021/08/19 09:36:06;;;;;;;1.75;1.10;;;;;;;21.01;54.67;96415.07;1771302;79;20977;-82
2021/08/19 09:38:41;;;;;;;1.57;1.10;;;;;;;20.95;54.03;96420.80;1773770;79;20982;-82
2021/08/19 09:41:18;;;;;;;1.87;1.20;;;;;;;20.92;54.68;96419.17;1758789;79;20994;-82
2021/08/19 09:43:48;;;;;;;1.40;1.10;;;;;;;20.95;54.44;96414.20;1756037;79;20951;-82
2021/08/19 09:46:36;;;;;;;1.20;0.90;;;;;;;21.02;54.75;96423.27;1761326;79;20969;-82
2021/08/19 09:49:10;;;;;;;2.05;1.17;;;;;;;21.08;53.96;96416.19;1761303;79;20956;-82
2021/08/19 09:51:35;;;;;;;1.52;1.05;;;;;;;21.05;53.98;96422.77;1757507;80;20991;-83
2021/08/19 09:54:01;;;;;;;1.45;0.90;;;;;;;20.97;53.04;96420.03;1766536;79;20966;-82
2021/08/19 09:56:34;;;;;;;1.52;0.98;;;;;;;20.94;53.59;96423.69;1767251;79;21082;-82
2021/08/19 09:59:24;;;;;;;1.92;1.07;;;;;;;20.84;52.93;96428.34;1765669;79;21023;-82
2021/08/19 10:01:52;;;;;;;1.92;0.70;;;;;;;20.89;52.64;96430.23;1762260;80;20933;-82
2021/08/19 10:04:19;;;;;;;1.57;0.95;;;;;;;20.92;52.44;96419.97;1753998;79;20978;-82
2021/08/19 10:06:45;;;;;;;1.90;1.25;;;;;;;21.06;51.54;96422.25;1765807;79;20958;-81
2021/08/19 10:09:11;;;;;;;2.72;1.05;;;;;;;21.09;53.92;96417.27;1756153;79;21408;-82
2021/08/19 10:11:37;;;;;;;2.65;1.17;;;;;;;21.20;53.42;96421.63;1709804;81;20967;-82
2021/08/19 10:14:04;;;;;;;2.27;0.70;;;;;;;21.34;52.33;96413.34;1759251;80;20963;-82
2021/08/19 10:16:34;;;;;;;1.40;0.80;;;;;;;21.36;50.75;96417.33;1738709;81;20945;-82
2021/08/19 10:19:07;;;;;;;2.52;1.00;;;;;;;21.19;50.08;96408.14;1749127;80;20995;-82
2021/08/19 10:21:34;;;;;;;1.80;0.88;;;;;;;21.01;51.15;96424.84;1750442;80;20953;-82
2021/08/19 10:24:01;;;;;;;1.40;1.00;;;;;;;21.10;51.38;96415.42;1719188;81;21346;-82
2021/08/19 10:26:27;;;;;;;2.08;1.00;;;;;;;21.13;52.01;96422.32;1751333;80;20980;-82
2021/08/19 10:28:57;;;;;;;2.85;1.00;;;;;;;21.07;51.99;96421.20;1760489;80;20952;-82
2021/08/19 10:31:43;;;;;;;1.10;0.70;;;;;;;20.97;51.24;96425.83;1758681;80;20966;-82
2021/08/19 10:34:18;;;;;;;1.85;1.10;;;;;;;20.94;51.55;96423.16;1739845;80;21004;-82
2021/08/19 10:36:49;;;;;;;2.62;1.37;;;;;;;20.94;52.45;96428.45;1754334;80;20944;-82
2021/08/19 10:39:28;;;;;;;1.85;1.15;;;;;;;20.98;53.39;96424.27;1751921;80;20977;-82
2021/08/19 10:41:54;;;;;;;1.27;0.88;;;;;;;21.05;52.58;96421.45;1740639;81;20913;-82
2021/08/19 10:44:32;;;;;;;1.55;1.00;;;;;;;21.11;52.02;96414.38;1752965;80;20978;-82
2021/08/19 10:46:58;;;;;;;2.17;1.10;;;;;;;21.16;51.78;96420.53;1761396;79;20951;-82
2021/08/19 10:49:33;;;;;;;1.15;1.00;;;;;;;21.26;50.11;96410.61;1752872;79;20920;-82
2021/08/19 10:52:17;;;;;;;1.72;0.72;;;;;;;21.37;50.10;96411.52;1751102;80;20999;-82
2021/08/19 10:54:46;;;;;;;1.25;0.70;;;;;;;21.35;49.68;96415.73;1747703;81;21062;-82
2021/08/19 10:57:30;;;;;;;1.10;0.70;;;;;;;21.39;48.72;96408.11;1734368;81;21051;-82
2021/08/19 10:59:58;;;;;;;1.20;0.75;;;;;;;21.56;48.16;96401.66;1752530;80;20910;-82
2021/08/19 11:02:45;;;;;;;1.20;0.80;;;;;;;21.75;49.41;96396.00;1759648;80;21381;-82
2021/08/19 11:05:22;;;;;;;2.35;0.98;;;;;;;21.95;50.07;96392.72;1751405;80;20935;-82
2021/08/19 11:07:51;;;;;;;0.98;0.60;;;;;;;22.02;49.25;96400.73;1749528;80;21940;-82
2021/08/19 11:10:39;;;;;;;2.08;0.70;;;;;;;21.94;46.26;96400.38;1739915;79;21431;-83
2021/08/19 11:13:11;;;;;;;1.10;0.65;;;;;;;21.98;48.11;96398.84;1756526;80;21042;-82
2021/08/19 11:15:46;;;;;;;1.92;1.07;;;;;;;22.12;48.16;96414.57;1741525;80;21322;-82
2021/08/19 11:18:31;;;;;;;0.70;0.50;;;;;;;22.27;47.25;96409.91;1759441;80;20959;-82
2021/08/19 11:20:57;;;;;;;1.30;0.60;;;;;;;22.38;45.61;96402.31;1721858;81;21341;-82
2021/08/19 11:23:28;;;;;;;1.75;0.70;;;;;;;22.25;46.41;96404.88;1747167;80;21034;-82
2021/08/19 11:26:04;;;;;;;0.85;0.60;;;;;;;22.22;47.62;96401.42;1741639;80;21457;-82
2021/08/19 11:28:43;;;;;;;2.72;0.78;;;;;;;22.14;47.25;96401.38;1750033;80;21003;-82
2021/08/19 11:31:17;;;;;;;1.07;0.62;;;;;;;22.18;48.02;96400.34;1753028;80;20999;-82
2021/08/19 11:33:43;;;;;;;1.55;0.80;;;;;;;22.25;48.39;96397.46;1749394;80;20991;-83
2021/08/19 11:36:10;;;;;;;1.27;0.80;;;;;;;22.34;48.07;96399.39;1729667;81;21382;-82